createdAt,value
2022-11-17T00:00:41.813Z,98331.84
2022-11-17T00:03:14.694Z,98337.75
2022-11-17T00:05:42.556Z,98344.06
2022-11-17T00:08:10.125Z,98340.81
2022-11-17T00:10:37.416Z,98341.13
2022-11-17T00:13:23.575Z,98341.03
2022-11-17T00:15:51.004Z,98342.59
2022-11-17T00:18:36.827Z,98338.87
2022-11-17T00:21:19.830Z,98329.47
2022-11-17T00:23:48.010Z,98335.81
2022-11-17T00:26:20.082Z,98326.81
2022-11-17T00:28:48.310Z,98320.59
2022-11-17T00:31:34.498Z,98332.97
2022-11-17T00:34:07.870Z,98330.00
2022-11-17T00:36:40.428Z,98331.06
2022-11-17T00:39:08.471Z,98334.16
2022-11-17T00:41:36.143Z,98327.94
2022-11-17T00:44:03.658Z,98323.16
2022-11-17T00:46:31.021Z,98327.31
2022-11-17T00:48:58.679Z,98332.47
2022-11-17T00:51:25.967Z,98328.09
2022-11-17T00:53:53.518Z,98318.53
2022-11-17T00:56:21.123Z,98324.28
2022-11-17T00:58:48.449Z,98324.50
2022-11-17T01:01:15.943Z,98324.69
2022-11-17T01:03:43.616Z,98314.84
2022-11-17T01:06:12.714Z,98302.22
2022-11-17T01:08:40.198Z,98302.06
2022-11-17T01:11:15.182Z,98300.34
2022-11-17T01:13:42.551Z,98302.44
2022-11-17T01:16:22.600Z,98295.03
2022-11-17T01:18:50.350Z,98293.87
2022-11-17T01:21:24.617Z,98293.34
2022-11-17T01:23:54.141Z,98293.03
2022-11-17T01:26:26.357Z,98295.88
2022-11-17T01:28:53.711Z,98291.59
2022-11-17T01:31:22.763Z,98293.03
2022-11-17T01:33:50.401Z,98286.63
2022-11-17T01:36:22.868Z,98294.03
2022-11-17T01:38:50.478Z,98290.12
2022-11-17T01:41:22.852Z,98288.09
2022-11-17T01:44:19.670Z,98295.91
2022-11-17T01:46:47.038Z,98292.84
2022-11-17T01:49:22.801Z,98280.38
2022-11-17T01:51:52.948Z,98291.63
2022-11-17T01:54:22.087Z,98293.03
2022-11-17T01:56:50.615Z,98303.66
2022-11-17T01:59:39.047Z,98312.59
2022-11-17T02:02:06.756Z,98306.25
2022-11-17T02:04:36.127Z,98314.25
2022-11-17T02:07:24.772Z,98315.47
2022-11-17T02:09:52.446Z,98314.00
2022-11-17T02:12:20.533Z,98320.06
2022-11-17T02:14:48.928Z,98326.44
2022-11-17T02:17:16.279Z,98319.72
2022-11-17T02:19:44.466Z,98323.22
2022-11-17T02:22:26.513Z,98316.63
2022-11-17T02:25:04.543Z,98308.75
2022-11-17T02:27:37.387Z,98298.28
2022-11-17T02:30:18.528Z,98288.13
2022-11-17T02:32:57.974Z,98294.66
2022-11-17T02:35:40.275Z,98298.28
2022-11-17T02:38:52.075Z,98293.37
2022-11-17T02:41:26.458Z,98282.56
2022-11-17T02:44:05.077Z,98286.87
2022-11-17T02:46:40.715Z,98289.09
2022-11-17T02:49:26.549Z,98283.53
2022-11-17T02:51:55.034Z,98278.09
2022-11-17T02:54:23.119Z,98290.28
2022-11-17T02:56:50.425Z,98310.09
2022-11-17T02:59:18.845Z,98296.16
2022-11-17T03:01:56.742Z,98287.03
2022-11-17T03:04:27.260Z,98284.19
2022-11-17T03:07:09.892Z,98263.25
2022-11-17T03:09:42.304Z,98263.25
2022-11-17T03:12:10.883Z,98263.66
2022-11-17T03:14:46.843Z,98261.75
2022-11-17T03:17:28.346Z,98262.19
2022-11-17T03:20:06.840Z,98260.00
2022-11-17T03:22:45.684Z,98251.28
2022-11-17T03:25:14.789Z,98254.50
2022-11-17T03:27:47.321Z,98246.97
2022-11-17T03:30:15.124Z,98248.91
2022-11-17T03:32:43.963Z,98254.13
2022-11-17T03:35:13.005Z,98244.34
2022-11-17T03:37:43.927Z,98254.63
2022-11-17T03:40:12.689Z,98258.31
2022-11-17T03:42:42.279Z,98270.06
2022-11-17T03:45:14.403Z,98290.09
2022-11-17T03:47:42.001Z,98298.50
2022-11-17T03:50:16.225Z,98299.91
2022-11-17T03:52:43.562Z,98304.06
2022-11-17T03:55:11.195Z,98303.00
2022-11-17T03:57:46.125Z,98312.59
2022-11-17T04:00:16.377Z,98315.38
2022-11-17T04:02:44.880Z,98315.66
2022-11-17T04:05:12.335Z,98311.41
2022-11-17T04:07:43.461Z,98309.97
2022-11-17T04:10:12.667Z,98314.09
2022-11-17T04:12:58.819Z,98303.44
2022-11-17T04:15:52.789Z,98300.19
2022-11-17T04:18:20.258Z,98301.37
2022-11-17T04:20:51.505Z,98297.31
2022-11-17T04:23:18.964Z,98300.06
2022-11-17T04:26:06.375Z,98302.00
2022-11-17T04:28:38.056Z,98304.81
2022-11-17T04:31:14.152Z,98306.91
2022-11-17T04:34:03.241Z,98300.38
2022-11-17T04:36:31.865Z,98300.38
2022-11-17T04:38:59.611Z,98296.22
2022-11-17T04:41:54.826Z,98297.50
2022-11-17T04:44:24.457Z,98295.84
2022-11-17T04:46:51.961Z,98300.47
2022-11-17T04:49:19.428Z,98299.66
2022-11-17T04:51:47.100Z,98311.75
2022-11-17T04:54:15.577Z,98309.53
2022-11-17T04:56:42.911Z,98306.47
2022-11-17T04:59:10.479Z,98316.84
2022-11-17T05:01:37.942Z,98318.44
2022-11-17T05:04:09.632Z,98329.06
2022-11-17T05:06:46.064Z,98334.59
2022-11-17T05:09:15.137Z,98343.84
2022-11-17T05:12:01.439Z,98341.38
2022-11-17T05:14:28.859Z,98341.03
2022-11-17T05:17:10.437Z,98343.00
2022-11-17T05:19:40.444Z,98339.91
2022-11-17T05:22:28.570Z,98341.13
2022-11-17T05:24:56.011Z,98346.66
2022-11-17T05:27:23.851Z,98341.91
2022-11-17T05:29:51.322Z,98341.56
2022-11-17T05:32:18.872Z,98342.84
2022-11-17T05:34:46.494Z,98329.69
2022-11-17T05:37:13.807Z,98335.41
2022-11-17T05:39:41.134Z,98331.06
2022-11-17T05:42:08.727Z,98331.31
2022-11-17T05:44:36.042Z,98323.81
2022-11-17T05:47:03.389Z,98326.88
2022-11-17T05:49:30.974Z,98329.66
2022-11-17T05:51:58.313Z,98336.69
2022-11-17T05:54:26.916Z,98345.56
2022-11-17T05:57:03.478Z,98350.53
2022-11-17T05:59:39.284Z,98350.84
2022-11-17T06:02:17.039Z,98357.41
2022-11-17T06:04:46.259Z,98358.88
2022-11-17T06:07:13.672Z,98365.16
2022-11-17T06:09:41.780Z,98364.00
2022-11-17T06:12:09.444Z,98371.34
2022-11-17T06:14:39.137Z,98370.13
2022-11-17T06:17:21.908Z,98363.97
2022-11-17T06:20:02.235Z,98365.84
2022-11-17T06:22:29.524Z,98363.22
2022-11-17T06:24:57.176Z,98358.09
2022-11-17T06:27:25.618Z,98359.97
2022-11-17T06:29:53.292Z,98353.28
2022-11-17T06:32:20.993Z,98351.22
2022-11-17T06:34:54.824Z,98361.69
2022-11-17T06:37:24.462Z,98361.28
2022-11-17T06:39:51.999Z,98357.03
2022-11-17T06:42:19.315Z,98356.00
2022-11-17T06:44:46.930Z,98364.81
2022-11-17T06:47:14.301Z,98366.66
2022-11-17T06:49:41.745Z,98370.81
2022-11-17T06:52:11.067Z,98380.00
2022-11-17T06:54:38.427Z,98379.50
2022-11-17T06:57:05.806Z,98380.09
2022-11-17T06:59:33.643Z,98374.97
2022-11-17T07:02:00.981Z,98391.34
2022-11-17T07:04:28.328Z,98387.69
2022-11-17T07:06:55.952Z,98394.59
2022-11-17T07:09:25.368Z,98398.06
2022-11-17T07:11:52.768Z,98402.56
2022-11-17T07:14:20.510Z,98394.28
2022-11-17T07:16:47.949Z,98395.97
2022-11-17T07:19:15.448Z,98395.28
2022-11-17T07:21:43.058Z,98391.22
2022-11-17T07:24:10.427Z,98381.53
2022-11-17T07:26:37.826Z,98392.28
2022-11-17T07:29:05.507Z,98394.78
2022-11-17T07:31:35.286Z,98389.78
2022-11-17T07:34:02.899Z,98401.00
2022-11-17T07:36:30.505Z,98400.09
2022-11-17T07:38:57.902Z,98394.34
2022-11-17T07:41:25.235Z,98403.72
2022-11-17T07:43:52.856Z,98402.69
2022-11-17T07:46:20.195Z,98405.41
2022-11-17T07:48:47.531Z,98404.16
2022-11-17T07:51:17.157Z,98406.81
2022-11-17T07:53:44.574Z,98405.97
2022-11-17T07:56:12.073Z,98400.28
2022-11-17T07:58:40.143Z,98395.59
2022-11-17T08:01:08.586Z,98396.94
2022-11-17T08:03:36.373Z,98406.56
2022-11-17T08:06:05.233Z,98397.19
2022-11-17T08:08:32.856Z,98394.34
2022-11-17T08:11:06.137Z,98395.53
2022-11-17T08:13:33.898Z,98390.63
2022-11-17T08:16:01.665Z,98399.81
2022-11-17T08:18:29.104Z,98398.69
2022-11-17T08:21:09.563Z,98408.19
2022-11-17T08:23:39.956Z,98403.78
2022-11-17T08:26:09.863Z,98405.19
2022-11-17T08:28:37.875Z,98398.94
2022-11-17T08:31:06.462Z,98407.00
2022-11-17T08:33:33.996Z,98414.28
2022-11-17T08:36:02.260Z,98406.75
2022-11-17T08:38:29.863Z,98407.97
2022-11-17T08:41:03.949Z,98413.41
2022-11-17T08:43:31.571Z,98411.84
2022-11-17T08:45:58.987Z,98433.44
2022-11-17T08:48:26.350Z,98416.19
2022-11-17T08:50:53.992Z,98432.38
2022-11-17T08:53:22.103Z,98438.47
2022-11-17T08:55:49.915Z,98428.66
2022-11-17T08:58:17.627Z,98445.59
2022-11-17T09:00:47.262Z,98435.53
2022-11-17T09:03:14.911Z,98432.31
2022-11-17T09:05:44.184Z,98427.97
2022-11-17T09:08:43.881Z,98437.97
2022-11-17T09:11:08.357Z,98437.47
2022-11-17T09:13:35.985Z,98440.94
2022-11-17T09:16:08.498Z,98443.34
2022-11-17T09:18:37.920Z,98448.41
2022-11-17T09:21:08.131Z,98454.00
2022-11-17T09:23:35.849Z,98448.28
2022-11-17T09:26:12.786Z,98451.75
2022-11-17T09:28:40.653Z,98456.63
2022-11-17T09:31:09.349Z,98449.19
2022-11-17T09:33:36.908Z,98448.31
2022-11-17T09:36:05.077Z,98447.00
2022-11-17T09:38:32.674Z,98441.00
2022-11-17T09:41:01.001Z,98434.81
2022-11-17T09:43:30.244Z,98435.31
2022-11-17T09:46:09.076Z,98432.69
2022-11-17T09:48:41.867Z,98432.56
2022-11-17T09:51:11.822Z,98436.97
2022-11-17T09:53:52.591Z,98426.66
2022-11-17T09:56:20.117Z,98415.31
2022-11-17T09:58:52.773Z,98424.66
2022-11-17T10:01:20.756Z,98413.25
2022-11-17T10:03:50.051Z,98409.59
2022-11-17T10:06:20.333Z,98410.41
2022-11-17T10:09:13.103Z,98420.41
2022-11-17T10:11:41.634Z,98420.63
2022-11-17T10:14:09.983Z,98427.78
2022-11-17T10:16:38.287Z,98415.37
2022-11-17T10:19:25.356Z,98420.12
2022-11-17T10:22:01.686Z,98425.09
2022-11-17T10:24:34.741Z,98424.06
2022-11-17T10:27:04.339Z,98412.44
2022-11-17T10:29:31.718Z,98411.66
2022-11-17T10:32:00.669Z,98402.47
2022-11-17T10:34:40.269Z,98406.47
2022-11-17T10:37:15.311Z,98407.19
2022-11-17T10:39:43.106Z,98405.78
2022-11-17T10:42:18.062Z,98399.31
2022-11-17T10:44:51.155Z,98410.50
2022-11-17T10:47:31.968Z,98409.59
2022-11-17T10:50:19.359Z,98425.03
2022-11-17T10:52:47.281Z,98422.84
2022-11-17T10:55:31.668Z,98407.97
2022-11-17T10:58:09.613Z,98414.38
2022-11-17T11:00:37.296Z,98405.03
2022-11-17T11:03:04.513Z,98412.84
2022-11-17T11:05:31.863Z,98412.16
2022-11-17T11:08:21.557Z,98408.28
2022-11-17T11:10:50.355Z,98409.13
2022-11-17T11:13:45.889Z,98399.16
2022-11-17T11:16:13.232Z,98393.69
2022-11-17T11:18:40.952Z,98401.00
2022-11-17T11:21:26.443Z,98393.59
2022-11-17T11:24:21.187Z,98401.50
2022-11-17T11:27:00.850Z,98399.50
2022-11-17T11:29:53.498Z,98413.78
2022-11-17T11:32:27.580Z,98409.84
2022-11-17T11:35:34.425Z,98409.13
2022-11-17T11:38:36.891Z,98398.31
2022-11-17T11:41:19.212Z,98399.63
2022-11-17T11:44:01.784Z,98395.94
2022-11-17T11:46:42.552Z,98402.50
2022-11-17T11:49:36.614Z,98397.56
2022-11-17T11:52:06.421Z,98395.81
2022-11-17T11:54:40.468Z,98393.28
2022-11-17T11:57:12.857Z,98384.09
2022-11-17T11:59:45.310Z,98395.31
2022-11-17T12:02:12.923Z,98385.59
2022-11-17T12:04:44.057Z,98385.22
2022-11-17T12:07:16.862Z,98389.09
2022-11-17T12:10:33.000Z,98398.91
2022-11-17T12:13:00.372Z,98399.84
2022-11-17T12:15:28.418Z,98392.66
2022-11-17T12:18:00.302Z,98386.69
2022-11-17T12:20:30.964Z,98384.69
2022-11-17T12:23:25.698Z,98385.03
2022-11-17T12:25:54.727Z,98382.31
2022-11-17T12:28:40.960Z,98400.28
2022-11-17T12:31:12.804Z,98396.38
2022-11-17T12:34:06.019Z,98400.22
2022-11-17T12:36:34.043Z,98400.25
2022-11-17T12:39:07.128Z,98405.75
2022-11-17T12:41:49.762Z,98400.87
2022-11-17T12:44:32.461Z,98406.13
2022-11-17T12:47:14.143Z,98405.91
2022-11-17T12:50:29.107Z,98405.28
2022-11-17T12:53:18.257Z,98399.94
2022-11-17T12:55:58.671Z,98400.91
2022-11-17T12:58:51.287Z,98399.19
2022-11-17T13:01:40.326Z,98399.31
2022-11-17T13:04:15.906Z,98385.78
2022-11-17T13:07:00.830Z,98397.59
2022-11-17T13:09:30.223Z,98392.78
2022-11-17T13:12:07.818Z,98409.44
2022-11-17T13:14:36.221Z,98413.13
2022-11-17T13:17:03.825Z,98401.31
2022-11-17T13:19:34.068Z,98404.22
2022-11-17T13:22:04.611Z,98403.72
2022-11-17T13:24:34.080Z,98410.19
2022-11-17T13:27:02.923Z,98410.59
2022-11-17T13:29:30.375Z,98416.50
2022-11-17T13:32:23.911Z,98417.84
2022-11-17T13:35:00.979Z,98421.31
2022-11-17T13:37:29.762Z,98418.09
2022-11-17T13:39:59.626Z,98436.00
2022-11-17T13:42:31.674Z,98435.59
2022-11-17T13:45:01.935Z,98434.50
2022-11-17T13:47:38.429Z,98429.31
2022-11-17T13:50:27.431Z,98441.09
2022-11-17T13:52:58.474Z,98441.19
2022-11-17T13:55:26.425Z,98436.00
2022-11-17T13:58:04.319Z,98431.22
2022-11-17T14:00:32.113Z,98432.09
2022-11-17T14:03:06.201Z,98435.50
2022-11-17T14:05:33.774Z,98437.03
2022-11-17T14:08:22.692Z,98425.19
2022-11-17T14:10:50.231Z,98416.88
2022-11-17T14:13:23.316Z,98419.41
2022-11-17T14:15:56.180Z,98428.25
2022-11-17T14:18:37.385Z,98422.34
2022-11-17T14:21:15.563Z,98426.62
2022-11-17T14:23:43.713Z,98415.13
2022-11-17T14:26:20.815Z,98406.50
2022-11-17T14:28:49.658Z,98405.47
2022-11-17T14:31:17.049Z,98416.03
2022-11-17T14:33:44.490Z,98412.22
2022-11-17T14:36:13.590Z,98416.75
2022-11-17T14:38:40.922Z,98418.09
2022-11-17T14:41:08.267Z,98424.13
2022-11-17T14:43:35.934Z,98436.69
2022-11-17T14:46:03.537Z,98437.84
2022-11-17T14:48:30.926Z,98438.16
2022-11-17T14:50:59.090Z,98430.81
2022-11-17T14:53:26.588Z,98416.66
2022-11-17T14:55:54.018Z,98428.72
2022-11-17T14:58:21.849Z,98425.72
2022-11-17T15:00:49.221Z,98432.22
2022-11-17T15:03:16.637Z,98424.16
2022-11-17T15:05:46.125Z,98423.00
2022-11-17T15:08:14.234Z,98418.56
2022-11-17T15:10:45.396Z,98420.56
2022-11-17T15:13:13.042Z,98418.00
2022-11-17T15:15:40.436Z,98424.69
2022-11-17T15:18:10.668Z,98423.72
2022-11-17T15:20:38.447Z,98427.31
2022-11-17T15:23:05.769Z,98434.19
2022-11-17T15:25:33.126Z,98442.38
2022-11-17T15:28:00.727Z,98430.78
2022-11-17T15:30:28.079Z,98444.56
2022-11-17T15:32:55.509Z,98427.25
2022-11-17T15:35:23.089Z,98446.94
2022-11-17T15:37:50.651Z,98437.84
2022-11-17T15:40:19.665Z,98429.31
2022-11-17T15:42:47.429Z,98427.19
2022-11-17T15:45:14.946Z,98423.47
2022-11-17T15:47:42.525Z,98429.84
2022-11-17T15:50:10.767Z,98421.03
2022-11-17T15:53:02.319Z,98417.94
2022-11-17T15:55:25.684Z,98413.56
2022-11-17T15:57:54.682Z,98412.25
2022-11-17T16:00:22.195Z,98422.03
2022-11-17T16:02:53.163Z,98425.38
2022-11-17T16:05:23.173Z,98416.88
2022-11-17T16:07:51.171Z,98413.75
2022-11-17T16:10:18.571Z,98417.59
2022-11-17T16:12:45.935Z,98413.09
2022-11-17T16:15:13.579Z,98417.31
2022-11-17T16:17:40.899Z,98401.56
2022-11-17T16:20:09.114Z,98394.53
2022-11-17T16:22:36.979Z,98392.41
2022-11-17T16:25:05.537Z,98385.66
2022-11-17T16:27:32.889Z,98394.78
2022-11-17T16:30:00.478Z,98404.25
2022-11-17T16:32:27.903Z,98406.81
2022-11-17T16:34:55.271Z,98407.03
2022-11-17T16:37:22.870Z,98409.38
2022-11-17T16:39:50.189Z,98424.44
2022-11-17T16:42:17.503Z,98450.22
2022-11-17T16:44:45.160Z,98449.03
2022-11-17T16:47:12.532Z,98460.44
2022-11-17T16:49:39.918Z,98463.72
2022-11-17T16:52:07.503Z,98471.72
2022-11-17T16:54:34.883Z,98473.78
2022-11-17T16:57:02.221Z,98467.78
2022-11-17T16:59:29.844Z,98482.34
2022-11-17T17:01:57.157Z,98488.00
2022-11-17T17:04:24.565Z,98485.50
2022-11-17T17:06:52.222Z,98492.37
2022-11-17T17:09:24.889Z,98483.72
2022-11-17T17:11:55.414Z,98495.84
2022-11-17T17:14:22.751Z,98487.50
2022-11-17T17:16:50.523Z,98491.94
2022-11-17T17:19:18.508Z,98491.00
2022-11-17T17:21:46.037Z,98485.09
2022-11-17T17:24:13.466Z,98478.31
2022-11-17T17:26:41.155Z,98482.19
2022-11-17T17:29:08.713Z,98489.12
2022-11-17T17:31:40.194Z,98485.56
2022-11-17T17:34:07.904Z,98487.03
2022-11-17T17:36:35.504Z,98484.97
2022-11-17T17:39:02.886Z,98476.53
2022-11-17T17:41:34.943Z,98478.66
2022-11-17T17:44:04.072Z,98472.59
2022-11-17T17:46:33.767Z,98471.25
2022-11-17T17:49:01.211Z,98466.38
2022-11-17T17:51:28.915Z,98469.94
2022-11-17T17:53:58.290Z,98470.00
2022-11-17T17:56:25.756Z,98469.75
2022-11-17T17:58:55.969Z,98473.38
2022-11-17T18:01:25.138Z,98469.94
2022-11-17T18:03:53.935Z,98466.00
2022-11-17T18:06:22.120Z,98464.47
2022-11-17T18:08:49.643Z,98457.62
2022-11-17T18:11:18.922Z,98478.00
2022-11-17T18:13:47.824Z,98471.91
2022-11-17T18:16:17.463Z,98473.00
2022-11-17T18:18:46.177Z,98466.22
2022-11-17T18:21:14.948Z,98474.00
2022-11-17T18:23:42.271Z,98468.63
2022-11-17T18:26:17.563Z,98455.63
2022-11-17T18:28:54.659Z,98454.37
2022-11-17T18:31:23.015Z,98454.47
2022-11-17T18:33:54.827Z,98450.44
2022-11-17T18:36:22.497Z,98448.50
2022-11-17T18:38:51.052Z,98449.72
2022-11-17T18:41:18.994Z,98446.97
2022-11-17T18:43:46.642Z,98443.06
2022-11-17T18:46:15.861Z,98440.34
2022-11-17T18:48:44.609Z,98443.22
2022-11-17T18:51:21.245Z,98429.84
2022-11-17T18:53:49.136Z,98432.34
2022-11-17T18:56:21.053Z,98439.19
2022-11-17T18:58:48.416Z,98445.13
2022-11-17T19:01:17.470Z,98450.09
2022-11-17T19:03:46.269Z,98452.22
2022-11-17T19:06:14.166Z,98452.81
2022-11-17T19:08:41.514Z,98454.50
2022-11-17T19:11:09.577Z,98449.84
2022-11-17T19:13:38.315Z,98437.28
2022-11-17T19:16:14.501Z,98439.84
2022-11-17T19:18:42.397Z,98440.81
2022-11-17T19:21:11.373Z,98440.34
2022-11-17T19:23:49.555Z,98449.06
2022-11-17T19:26:23.545Z,98435.81
2022-11-17T19:28:51.015Z,98437.03
2022-11-17T19:31:19.694Z,98433.94
2022-11-17T19:33:47.444Z,98440.56
2022-11-17T19:36:22.056Z,98427.09
2022-11-17T19:38:53.440Z,98434.59
2022-11-17T19:41:28.198Z,98449.94
2022-11-17T19:43:56.489Z,98442.97
2022-11-17T19:46:24.394Z,98421.00
2022-11-17T19:48:51.808Z,98404.78
2022-11-17T19:51:20.438Z,98398.09
2022-11-17T19:53:48.614Z,98391.91
2022-11-17T19:56:16.034Z,98408.41
2022-11-17T19:58:43.792Z,98412.22
2022-11-17T20:01:22.375Z,98390.03
2022-11-17T20:03:50.203Z,98424.59
2022-11-17T20:06:19.153Z,98427.53
2022-11-17T20:08:46.643Z,98431.37
2022-11-17T20:11:16.660Z,98433.28
2022-11-17T20:13:44.124Z,98427.59
2022-11-17T20:16:13.818Z,98417.56
2022-11-17T20:18:42.015Z,98413.75
2022-11-17T20:21:09.606Z,98364.53
2022-11-17T20:23:37.536Z,98388.47
2022-11-17T20:26:12.708Z,98435.50
2022-11-17T20:28:40.118Z,98437.06
2022-11-17T20:31:09.942Z,98441.22
2022-11-17T20:33:38.245Z,98440.94
2022-11-17T20:36:06.415Z,98446.66
2022-11-17T20:38:34.074Z,98451.72
2022-11-17T20:41:01.459Z,98443.38
2022-11-17T20:43:28.893Z,98445.56
2022-11-17T20:45:56.878Z,98444.13
2022-11-17T20:48:24.291Z,98447.81
2022-11-17T20:51:02.064Z,98452.59
2022-11-17T20:53:29.937Z,98444.16
2022-11-17T20:56:01.031Z,98444.38
2022-11-17T20:58:28.784Z,98441.47
2022-11-17T21:00:56.531Z,98438.97
2022-11-17T21:03:23.958Z,98447.25
2022-11-17T21:05:59.266Z,98444.22
2022-11-17T21:08:28.587Z,98429.59
2022-11-17T21:11:00.410Z,98440.31
2022-11-17T21:13:28.270Z,98435.56
2022-11-17T21:16:14.609Z,98425.81
2022-11-17T21:18:46.455Z,98429.31
2022-11-17T21:21:13.931Z,98428.59
2022-11-17T21:23:41.847Z,98446.97
2022-11-17T21:26:12.718Z,98423.00
2022-11-17T21:28:40.931Z,98431.16
2022-11-17T21:31:17.018Z,98433.41
2022-11-17T21:33:44.429Z,98444.56
2022-11-17T21:36:16.213Z,98462.81
2022-11-17T21:38:44.431Z,98453.94
2022-11-17T21:41:16.627Z,98443.47
2022-11-17T21:43:44.959Z,98446.78
2022-11-17T21:46:19.702Z,98433.56
2022-11-17T21:48:47.370Z,98420.53
2022-11-17T21:51:16.652Z,98418.03
2022-11-17T21:53:44.295Z,98415.41
2022-11-17T21:56:11.702Z,98434.06
2022-11-17T21:58:39.461Z,98435.81
2022-11-17T22:01:13.814Z,98431.06
2022-11-17T22:03:41.785Z,98424.94
2022-11-17T22:06:13.303Z,98438.59
2022-11-17T22:08:42.281Z,98428.00
2022-11-17T22:11:11.532Z,98430.22
2022-11-17T22:13:39.236Z,98439.47
2022-11-17T22:16:13.996Z,98438.28
2022-11-17T22:18:41.365Z,98435.44
2022-11-17T22:21:09.466Z,98433.47
2022-11-17T22:23:36.833Z,98427.59
2022-11-17T22:26:05.608Z,98426.38
2022-11-17T22:28:33.249Z,98414.91
2022-11-17T22:31:04.835Z,98430.53
2022-11-17T22:33:32.184Z,98424.16
2022-11-17T22:36:00.154Z,98422.69
2022-11-17T22:38:30.004Z,98427.34
2022-11-17T22:41:04.749Z,98418.28
2022-11-17T22:43:32.612Z,98423.06
2022-11-17T22:46:03.998Z,98397.84
2022-11-17T22:48:31.975Z,98417.88
2022-11-17T22:50:59.677Z,98414.97
2022-11-17T22:53:27.195Z,98409.63
2022-11-17T22:55:54.868Z,98409.25
2022-11-17T22:58:22.199Z,98401.56
2022-11-17T23:00:49.607Z,98402.78
2022-11-17T23:03:17.229Z,98401.31
2022-11-17T23:05:44.615Z,98391.06
2022-11-17T23:08:11.953Z,98395.44
2022-11-17T23:10:39.550Z,98398.75
2022-11-17T23:13:06.857Z,98396.84
2022-11-17T23:15:34.296Z,98393.19
2022-11-17T23:18:01.986Z,98405.91
2022-11-17T23:20:29.343Z,98393.69
2022-11-17T23:22:56.655Z,98387.59
2022-11-17T23:25:24.217Z,98382.28
2022-11-17T23:27:51.557Z,98388.97
2022-11-17T23:30:18.890Z,98394.78
2022-11-17T23:32:47.299Z,98398.25
2022-11-17T23:35:14.677Z,98400.37
2022-11-17T23:37:42.039Z,98394.00
2022-11-17T23:40:10.149Z,98393.56
2022-11-17T23:42:42.720Z,98393.28
2022-11-17T23:45:12.116Z,98388.78
2022-11-17T23:47:39.994Z,98389.38
2022-11-17T23:50:07.873Z,98375.38
2022-11-17T23:52:35.499Z,98378.50
2022-11-17T23:55:02.917Z,98374.28
2022-11-17T23:57:30.280Z,98381.19
2022-11-17T23:59:57.885Z,98383.66
